sensor_id;sensor_type;location;lat;lon;timestamp;P1;durP1;ratioP1;P2;durP2;ratioP2
55150;SDS011;41041;43.162;20.538;2022-08-19T00:30:32;10.48;;;4.50;;
55150;SDS011;41041;43.162;20.538;2022-08-19T00:33:01;8.52;;;4.55;;
55150;SDS011;41041;43.162;20.538;2022-08-19T00:38:46;10.15;;;4.78;;
55150;SDS011;41041;43.162;20.538;2022-08-19T00:41:20;7.57;;;4.38;;
55150;SDS011;41041;43.162;20.538;2022-08-19T00:46:48;8.02;;;4.20;;
55150;SDS011;41041;43.162;20.538;2022-08-19T00:49:29;9.02;;;4.57;;
55150;SDS011;41041;43.162;20.538;2022-08-19T00:55:22;8.07;;;4.45;;
55150;SDS011;41041;43.162;20.538;2022-08-19T00:58:04;9.38;;;4.45;;
55150;SDS011;41041;43.162;20.538;2022-08-19T01:00:38;9.02;;;4.55;;
55150;SDS011;41041;43.162;20.538;2022-08-19T01:12:44;10.18;;;5.03;;
55150;SDS011;41041;43.162;20.538;2022-08-19T01:19:15;11.05;;;4.43;;
55150;SDS011;41041;43.162;20.538;2022-08-19T01:32:35;17.73;;;5.18;;
55150;SDS011;41041;43.162;20.538;2022-08-19T01:38:26;11.00;;;5.13;;
55150;SDS011;41041;43.162;20.538;2022-08-19T01:44:18;8.73;;;4.65;;
55150;SDS011;41041;43.162;20.538;2022-08-19T01:50:11;10.50;;;4.85;;
55150;SDS011;41041;43.162;20.538;2022-08-19T01:52:39;8.55;;;4.85;;
55150;SDS011;41041;43.162;20.538;2022-08-19T01:55:10;8.60;;;4.45;;
55150;SDS011;41041;43.162;20.538;2022-08-19T02:01:13;11.82;;;4.60;;
55150;SDS011;41041;43.162;20.538;2022-08-19T02:07:25;7.88;;;5.13;;
55150;SDS011;41041;43.162;20.538;2022-08-19T02:13:13;10.82;;;5.20;;
55150;SDS011;41041;43.162;20.538;2022-08-19T02:19:27;8.52;;;4.93;;
55150;SDS011;41041;43.162;20.538;2022-08-19T02:25:38;8.25;;;4.55;;
55150;SDS011;41041;43.162;20.538;2022-08-19T02:28:09;7.68;;;4.65;;
55150;SDS011;41041;43.162;20.538;2022-08-19T02:30:39;7.63;;;4.90;;
55150;SDS011;41041;43.162;20.538;2022-08-19T02:33:11;7.05;;;4.60;;
55150;SDS011;41041;43.162;20.538;2022-08-19T02:35:42;10.88;;;5.13;;
55150;SDS011;41041;43.162;20.538;2022-08-19T02:38:12;13.38;;;4.60;;
55150;SDS011;41041;43.162;20.538;2022-08-19T02:44:18;9.40;;;4.25;;
55150;SDS011;41041;43.162;20.538;2022-08-19T02:46:47;9.15;;;5.22;;
55150;SDS011;41041;43.162;20.538;2022-08-19T02:49:21;7.60;;;4.85;;
55150;SDS011;41041;43.162;20.538;2022-08-19T02:51:52;10.00;;;4.38;;
55150;SDS011;41041;43.162;20.538;2022-08-19T02:54:21;13.82;;;4.95;;
55150;SDS011;41041;43.162;20.538;2022-08-19T03:00:09;12.27;;;4.97;;
55150;SDS011;41041;43.162;20.538;2022-08-19T03:02:38;11.00;;;5.25;;
55150;SDS011;41041;43.162;20.538;2022-08-19T03:05:05;9.07;;;4.90;;
55150;SDS011;41041;43.162;20.538;2022-08-19T03:07:37;10.73;;;5.20;;
55150;SDS011;41041;43.162;20.538;2022-08-19T03:10:43;13.15;;;6.38;;
55150;SDS011;41041;43.162;20.538;2022-08-19T03:13:15;15.35;;;5.32;;
55150;SDS011;41041;43.162;20.538;2022-08-19T03:15:48;14.07;;;5.10;;
55150;SDS011;41041;43.162;20.538;2022-08-19T03:18:19;15.40;;;5.32;;
55150;SDS011;41041;43.162;20.538;2022-08-19T03:20:47;12.52;;;4.88;;
55150;SDS011;41041;43.162;20.538;2022-08-19T03:23:14;12.18;;;5.30;;
55150;SDS011;41041;43.162;20.538;2022-08-19T03:25:44;14.65;;;4.93;;
55150;SDS011;41041;43.162;20.538;2022-08-19T03:28:17;13.65;;;5.03;;
55150;SDS011;41041;43.162;20.538;2022-08-19T03:30:53;17.52;;;5.47;;
55150;SDS011;41041;43.162;20.538;2022-08-19T03:37:03;9.23;;;4.80;;
55150;SDS011;41041;43.162;20.538;2022-08-19T03:39:31;14.02;;;5.47;;
55150;SDS011;41041;43.162;20.538;2022-08-19T03:41:58;13.82;;;5.28;;
55150;SDS011;41041;43.162;20.538;2022-08-19T03:44:31;13.73;;;5.32;;
55150;SDS011;41041;43.162;20.538;2022-08-19T03:47:02;14.23;;;4.90;;
55150;SDS011;41041;43.162;20.538;2022-08-19T03:49:30;21.20;;;5.50;;
55150;SDS011;41041;43.162;20.538;2022-08-19T03:52:00;11.40;;;5.22;;
55150;SDS011;41041;43.162;20.538;2022-08-19T03:54:32;12.90;;;5.60;;
55150;SDS011;41041;43.162;20.538;2022-08-19T03:56:58;13.60;;;5.07;;
55150;SDS011;41041;43.162;20.538;2022-08-19T03:59:29;10.18;;;4.60;;
55150;SDS011;41041;43.162;20.538;2022-08-19T04:01:58;12.70;;;4.90;;
55150;SDS011;41041;43.162;20.538;2022-08-19T04:04:26;9.93;;;5.68;;
55150;SDS011;41041;43.162;20.538;2022-08-19T04:06:53;14.38;;;5.20;;
55150;SDS011;41041;43.162;20.538;2022-08-19T04:09:33;13.93;;;5.40;;
55150;SDS011;41041;43.162;20.538;2022-08-19T04:12:01;10.18;;;4.90;;
55150;SDS011;41041;43.162;20.538;2022-08-19T04:14:30;7.13;;;4.80;;
55150;SDS011;41041;43.162;20.538;2022-08-19T04:16:57;6.80;;;4.55;;
55150;SDS011;41041;43.162;20.538;2022-08-19T04:19:24;11.43;;;5.35;;
55150;SDS011;41041;43.162;20.538;2022-08-19T04:22:01;9.52;;;5.15;;
55150;SDS011;41041;43.162;20.538;2022-08-19T08:45:12;17.42;;;5.55;;
55150;SDS011;41041;43.162;20.538;2022-08-19T08:51:11;14.82;;;5.13;;
55150;SDS011;41041;43.162;20.538;2022-08-19T08:54:10;15.98;;;4.97;;
55150;SDS011;41041;43.162;20.538;2022-08-19T08:56:59;17.25;;;4.85;;
55150;SDS011;41041;43.162;20.538;2022-08-19T08:59:29;10.98;;;4.90;;
55150;SDS011;41041;43.162;20.538;2022-08-19T09:04:24;10.27;;;4.10;;
55150;SDS011;41041;43.162;20.538;2022-08-19T09:07:06;19.85;;;4.57;;
55150;SDS011;41041;43.162;20.538;2022-08-19T09:09:48;12.65;;;4.40;;
55150;SDS011;41041;43.162;20.538;2022-08-19T09:12:25;13.13;;;4.55;;
55150;SDS011;41041;43.162;20.538;2022-08-19T09:15:05;17.30;;;5.03;;
55150;SDS011;41041;43.162;20.538;2022-08-19T09:17:34;16.42;;;5.53;;
55150;SDS011;41041;43.162;20.538;2022-08-19T09:20:05;14.02;;;4.38;;
55150;SDS011;41041;43.162;20.538;2022-08-19T09:22:43;12.23;;;4.32;;
55150;SDS011;41041;43.162;20.538;2022-08-19T09:25:10;11.80;;;4.47;;
55150;SDS011;41041;43.162;20.538;2022-08-19T09:27:39;7.95;;;3.40;;
55150;SDS011;41041;43.162;20.538;2022-08-19T09:30:06;11.90;;;3.95;;
55150;SDS011;41041;43.162;20.538;2022-08-19T09:32:33;16.38;;;4.60;;
55150;SDS011;41041;43.162;20.538;2022-08-19T09:34:59;9.88;;;5.47;;
55150;SDS011;41041;43.162;20.538;2022-08-19T09:37:26;13.20;;;7.90;;
55150;SDS011;41041;43.162;20.538;2022-08-19T09:39:53;8.55;;;4.28;;
55150;SDS011;41041;43.162;20.538;2022-08-19T09:42:19;14.35;;;4.53;;
55150;SDS011;41041;43.162;20.538;2022-08-19T09:44:45;11.20;;;4.75;;
55150;SDS011;41041;43.162;20.538;2022-08-19T09:47:13;9.40;;;4.10;;
55150;SDS011;41041;43.162;20.538;2022-08-19T09:49:40;12.68;;;4.50;;
55150;SDS011;41041;43.162;20.538;2022-08-19T09:52:08;8.60;;;4.30;;
55150;SDS011;41041;43.162;20.538;2022-08-19T09:54:36;11.38;;;4.35;;
55150;SDS011;41041;43.162;20.538;2022-08-19T09:57:02;9.07;;;3.60;;
55150;SDS011;41041;43.162;20.538;2022-08-19T09:59:28;8.38;;;4.20;;
55150;SDS011;41041;43.162;20.538;2022-08-19T10:01:57;7.57;;;4.07;;
55150;SDS011;41041;43.162;20.538;2022-08-19T10:04:23;13.68;;;4.75;;
55150;SDS011;41041;43.162;20.538;2022-08-19T10:07:09;12.43;;;4.18;;
55150;SDS011;41041;43.162;20.538;2022-08-19T10:09:35;14.18;;;3.47;;
55150;SDS011;41041;43.162;20.538;2022-08-19T10:12:03;8.20;;;3.83;;
55150;SDS011;41041;43.162;20.538;2022-08-19T10:14:30;8.65;;;3.70;;
55150;SDS011;41041;43.162;20.538;2022-08-19T10:16:56;6.47;;;3.55;;
55150;SDS011;41041;43.162;20.538;2022-08-19T10:19:22;10.00;;;3.80;;
55150;SDS011;41041;43.162;20.538;2022-08-19T10:21:47;11.85;;;3.63;;
55150;SDS011;41041;43.162;20.538;2022-08-19T10:24:13;11.80;;;3.85;;
55150;SDS011;41041;43.162;20.538;2022-08-19T10:26:40;8.90;;;3.72;;
55150;SDS011;41041;43.162;20.538;2022-08-19T10:29:11;8.07;;;4.05;;
55150;SDS011;41041;43.162;20.538;2022-08-19T10:31:37;13.88;;;3.80;;
55150;SDS011;41041;43.162;20.538;2022-08-19T10:34:06;9.70;;;3.83;;
55150;SDS011;41041;43.162;20.538;2022-08-19T10:36:32;9.95;;;3.67;;
55150;SDS011;41041;43.162;20.538;2022-08-19T10:39:02;9.80;;;4.38;;
55150;SDS011;41041;43.162;20.538;2022-08-19T10:41:31;9.02;;;4.05;;
55150;SDS011;41041;43.162;20.538;2022-08-19T10:44:04;12.77;;;4.30;;
55150;SDS011;41041;43.162;20.538;2022-08-19T10:46:36;9.95;;;3.67;;
55150;SDS011;41041;43.162;20.538;2022-08-19T10:49:20;18.48;;;4.80;;
55150;SDS011;41041;43.162;20.538;2022-08-19T10:51:47;11.52;;;4.30;;
55150;SDS011;41041;43.162;20.538;2022-08-19T10:54:32;8.90;;;3.67;;
55150;SDS011;41041;43.162;20.538;2022-08-19T10:57:17;8.98;;;3.63;;
55150;SDS011;41041;43.162;20.538;2022-08-19T10:59:43;11.63;;;4.05;;
55150;SDS011;41041;43.162;20.538;2022-08-19T11:02:12;9.95;;;3.45;;
55150;SDS011;41041;43.162;20.538;2022-08-19T11:04:42;8.48;;;3.80;;
55150;SDS011;41041;43.162;20.538;2022-08-19T11:07:08;8.55;;;3.95;;
55150;SDS011;41041;43.162;20.538;2022-08-19T11:09:39;9.57;;;3.90;;
55150;SDS011;41041;43.162;20.538;2022-08-19T11:12:07;9.65;;;3.80;;
55150;SDS011;41041;43.162;20.538;2022-08-19T11:14:34;8.13;;;3.85;;
55150;SDS011;41041;43.162;20.538;2022-08-19T11:17:09;9.23;;;3.72;;
55150;SDS011;41041;43.162;20.538;2022-08-19T11:19:36;9.15;;;3.58;;
55150;SDS011;41041;43.162;20.538;2022-08-19T11:22:01;11.20;;;3.90;;
55150;SDS011;41041;43.162;20.538;2022-08-19T11:24:28;11.00;;;3.70;;
55150;SDS011;41041;43.162;20.538;2022-08-19T11:27:00;10.52;;;3.85;;
55150;SDS011;41041;43.162;20.538;2022-08-19T11:29:29;10.25;;;3.85;;
55150;SDS011;41041;43.162;20.538;2022-08-19T11:31:55;9.50;;;3.63;;
55150;SDS011;41041;43.162;20.538;2022-08-19T11:34:26;12.57;;;3.70;;
55150;SDS011;41041;43.162;20.538;2022-08-19T11:36:56;9.10;;;4.07;;
55150;SDS011;41041;43.162;20.538;2022-08-19T11:39:23;11.60;;;4.32;;
55150;SDS011;41041;43.162;20.538;2022-08-19T11:41:50;12.57;;;4.03;;
55150;SDS011;41041;43.162;20.538;2022-08-19T11:44:16;12.60;;;4.07;;
55150;SDS011;41041;43.162;20.538;2022-08-19T11:47:00;13.13;;;4.15;;
55150;SDS011;41041;43.162;20.538;2022-08-19T11:49:26;9.75;;;4.28;;
55150;SDS011;41041;43.162;20.538;2022-08-19T11:51:52;13.00;;;4.00;;
55150;SDS011;41041;43.162;20.538;2022-08-19T11:54:18;9.65;;;3.60;;
55150;SDS011;41041;43.162;20.538;2022-08-19T11:56:44;10.07;;;4.05;;
55150;SDS011;41041;43.162;20.538;2022-08-19T11:59:11;16.48;;;4.05;;
55150;SDS011;41041;43.162;20.538;2022-08-19T12:01:36;10.80;;;3.78;;
55150;SDS011;41041;43.162;20.538;2022-08-19T12:04:02;7.30;;;3.85;;
55150;SDS011;41041;43.162;20.538;2022-08-19T12:06:37;14.75;;;3.58;;
55150;SDS011;41041;43.162;20.538;2022-08-19T12:09:04;12.32;;;3.78;;
55150;SDS011;41041;43.162;20.538;2022-08-19T12:11:33;12.38;;;3.63;;
55150;SDS011;41041;43.162;20.538;2022-08-19T12:14:15;13.07;;;3.67;;
55150;SDS011;41041;43.162;20.538;2022-08-19T12:16:42;15.57;;;4.18;;
55150;SDS011;41041;43.162;20.538;2022-08-19T12:19:11;14.02;;;3.92;;
55150;SDS011;41041;43.162;20.538;2022-08-19T12:21:37;12.35;;;4.22;;
55150;SDS011;41041;43.162;20.538;2022-08-19T12:24:04;17.38;;;3.70;;
55150;SDS011;41041;43.162;20.538;2022-08-19T12:26:31;13.93;;;3.95;;
55150;SDS011;41041;43.162;20.538;2022-08-19T12:28:57;17.38;;;3.70;;
55150;SDS011;41041;43.162;20.538;2022-08-19T12:31:24;11.85;;;4.20;;
55150;SDS011;41041;43.162;20.538;2022-08-19T12:33:52;10.10;;;3.50;;
55150;SDS011;41041;43.162;20.538;2022-08-19T12:36:18;15.10;;;3.85;;
55150;SDS011;41041;43.162;20.538;2022-08-19T12:38:44;13.55;;;3.97;;
55150;SDS011;41041;43.162;20.538;2022-08-19T12:41:17;13.32;;;3.92;;
55150;SDS011;41041;43.162;20.538;2022-08-19T12:43:44;14.77;;;3.70;;
55150;SDS011;41041;43.162;20.538;2022-08-19T12:46:10;15.85;;;3.80;;
55150;SDS011;41041;43.162;20.538;2022-08-19T12:48:37;13.38;;;3.50;;
55150;SDS011;41041;43.162;20.538;2022-08-19T12:51:07;16.55;;;4.50;;
55150;SDS011;41041;43.162;20.538;2022-08-19T12:53:35;11.18;;;3.47;;
55150;SDS011;41041;43.162;20.538;2022-08-19T12:56:02;18.05;;;3.90;;
55150;SDS011;41041;43.162;20.538;2022-08-19T12:58:28;18.38;;;3.75;;
55150;SDS011;41041;43.162;20.538;2022-08-19T13:00:55;14.35;;;3.67;;
55150;SDS011;41041;43.162;20.538;2022-08-19T13:03:24;21.17;;;3.80;;
55150;SDS011;41041;43.162;20.538;2022-08-19T13:05:55;14.10;;;3.80;;
55150;SDS011;41041;43.162;20.538;2022-08-19T13:08:24;22.20;;;4.03;;
55150;SDS011;41041;43.162;20.538;2022-08-19T13:10:52;15.60;;;3.80;;
55150;SDS011;41041;43.162;20.538;2022-08-19T13:13:18;19.67;;;3.85;;
55150;SDS011;41041;43.162;20.538;2022-08-19T13:15:44;15.75;;;4.00;;
55150;SDS011;41041;43.162;20.538;2022-08-19T13:18:11;15.75;;;4.18;;
55150;SDS011;41041;43.162;20.538;2022-08-19T13:20:37;21.30;;;4.18;;
55150;SDS011;41041;43.162;20.538;2022-08-19T13:23:08;23.10;;;4.50;;
55150;SDS011;41041;43.162;20.538;2022-08-19T13:25:34;23.92;;;4.50;;
55150;SDS011;41041;43.162;20.538;2022-08-19T13:28:01;16.25;;;4.80;;
55150;SDS011;41041;43.162;20.538;2022-08-19T13:30:27;20.05;;;4.40;;
55150;SDS011;41041;43.162;20.538;2022-08-19T13:33:11;13.18;;;4.40;;
55150;SDS011;41041;43.162;20.538;2022-08-19T13:38:08;17.40;;;4.30;;
55150;SDS011;41041;43.162;20.538;2022-08-19T13:40:35;23.10;;;4.72;;
55150;SDS011;41041;43.162;20.538;2022-08-19T13:43:02;30.58;;;5.57;;
55150;SDS011;41041;43.162;20.538;2022-08-19T13:45:29;33.25;;;4.70;;
55150;SDS011;41041;43.162;20.538;2022-08-19T13:47:58;20.42;;;4.30;;
55150;SDS011;41041;43.162;20.538;2022-08-19T13:50:26;24.20;;;4.53;;
55150;SDS011;41041;43.162;20.538;2022-08-19T13:52:54;26.17;;;4.88;;
55150;SDS011;41041;43.162;20.538;2022-08-19T13:55:21;20.55;;;4.40;;
55150;SDS011;41041;43.162;20.538;2022-08-19T13:57:54;27.25;;;4.47;;
55150;SDS011;41041;43.162;20.538;2022-08-19T14:00:22;28.33;;;4.63;;
55150;SDS011;41041;43.162;20.538;2022-08-19T14:02:51;26.33;;;4.40;;
55150;SDS011;41041;43.162;20.538;2022-08-19T14:05:19;23.55;;;4.25;;
55150;SDS011;41041;43.162;20.538;2022-08-19T14:07:45;26.42;;;4.18;;
55150;SDS011;41041;43.162;20.538;2022-08-19T14:10:12;23.70;;;4.45;;
55150;SDS011;41041;43.162;20.538;2022-08-19T14:12:38;26.70;;;4.72;;
55150;SDS011;41041;43.162;20.538;2022-08-19T14:15:05;27.15;;;4.43;;
55150;SDS011;41041;43.162;20.538;2022-08-19T15:54:43;25.52;;;5.13;;
55150;SDS011;41041;43.162;20.538;2022-08-19T15:57:31;25.60;;;4.90;;
55150;SDS011;41041;43.162;20.538;2022-08-19T16:00:18;29.23;;;4.80;;
55150;SDS011;41041;43.162;20.538;2022-08-19T16:03:02;25.13;;;4.80;;
55150;SDS011;41041;43.162;20.538;2022-08-19T16:05:47;20.67;;;4.68;;
55150;SDS011;41041;43.162;20.538;2022-08-19T16:08:34;18.90;;;4.68;;
55150;SDS011;41041;43.162;20.538;2022-08-19T16:11:00;25.98;;;4.28;;
55150;SDS011;41041;43.162;20.538;2022-08-19T16:13:26;30.13;;;5.00;;
55150;SDS011;41041;43.162;20.538;2022-08-19T16:15:51;26.52;;;5.05;;
55150;SDS011;41041;43.162;20.538;2022-08-19T16:18:21;22.95;;;4.13;;
55150;SDS011;41041;43.162;20.538;2022-08-19T16:20:49;21.90;;;5.07;;
55150;SDS011;41041;43.162;20.538;2022-08-19T16:23:15;19.75;;;5.38;;
55150;SDS011;41041;43.162;20.538;2022-08-19T16:25:41;21.83;;;5.07;;
55150;SDS011;41041;43.162;20.538;2022-08-19T16:28:07;25.13;;;4.90;;
55150;SDS011;41041;43.162;20.538;2022-08-19T16:30:34;22.08;;;5.03;;
55150;SDS011;41041;43.162;20.538;2022-08-19T16:33:02;25.73;;;5.55;;
55150;SDS011;41041;43.162;20.538;2022-08-19T16:35:27;21.73;;;5.45;;
55150;SDS011;41041;43.162;20.538;2022-08-19T16:37:53;44.00;;;6.07;;
55150;SDS011;41041;43.162;20.538;2022-08-19T16:40:19;34.38;;;5.32;;
55150;SDS011;41041;43.162;20.538;2022-08-19T16:42:45;39.53;;;5.57;;
55150;SDS011;41041;43.162;20.538;2022-08-19T16:45:11;27.60;;;5.10;;
55150;SDS011;41041;43.162;20.538;2022-08-19T16:47:36;27.45;;;5.22;;
55150;SDS011;41041;43.162;20.538;2022-08-19T16:50:08;24.45;;;5.00;;
55150;SDS011;41041;43.162;20.538;2022-08-19T16:52:34;32.83;;;5.32;;
55150;SDS011;41041;43.162;20.538;2022-08-19T16:55:01;21.77;;;4.82;;
55150;SDS011;41041;43.162;20.538;2022-08-19T16:57:28;28.40;;;5.65;;
55150;SDS011;41041;43.162;20.538;2022-08-19T16:59:56;27.92;;;5.05;;
55150;SDS011;41041;43.162;20.538;2022-08-19T17:02:22;26.38;;;5.45;;
55150;SDS011;41041;43.162;20.538;2022-08-19T17:04:59;30.83;;;5.35;;
55150;SDS011;41041;43.162;20.538;2022-08-19T17:07:28;103.45;;;8.93;;
55150;SDS011;41041;43.162;20.538;2022-08-19T17:09:55;37.03;;;5.53;;
55150;SDS011;41041;43.162;20.538;2022-08-19T17:22:13;23.35;;;7.05;;
55150;SDS011;41041;43.162;20.538;2022-08-19T17:32:21;29.33;;;7.03;;
55150;SDS011;41041;43.162;20.538;2022-08-19T17:52:38;24.33;;;6.45;;
